createdAt,value
2018-02-16T00:01:16.992Z,96.50
2018-02-16T00:03:44.498Z,96.50
2018-02-16T00:06:12.762Z,96.70
2018-02-16T00:08:40.231Z,96.70
2018-02-16T00:11:07.802Z,96.60
2018-02-16T00:13:35.287Z,97.00
2018-02-16T00:16:03.550Z,96.70
2018-02-16T00:18:31.035Z,96.60
2018-02-16T00:20:58.602Z,96.80
2018-02-16T00:23:26.174Z,96.50
2018-02-16T00:25:53.647Z,96.50
2018-02-16T00:28:21.218Z,96.60
2018-02-16T00:30:48.723Z,96.60
2018-02-16T00:33:16.298Z,96.60
2018-02-16T00:35:43.776Z,96.60
2018-02-16T00:38:11.302Z,96.50
2018-02-16T00:40:38.808Z,96.60
2018-02-16T00:43:06.381Z,96.70
2018-02-16T00:45:33.863Z,96.80
2018-02-16T00:48:01.351Z,96.80
2018-02-16T00:50:28.827Z,96.60
2018-02-16T00:52:56.642Z,96.80
2018-02-16T00:55:24.137Z,96.80
2018-02-16T00:57:51.615Z,96.80
2018-02-16T01:00:19.149Z,96.80
2018-02-16T01:02:46.628Z,96.70
2018-02-16T01:05:14.894Z,97.10
2018-02-16T01:07:42.370Z,96.80
2018-02-16T01:10:09.839Z,96.60
2018-02-16T01:12:37.359Z,96.60
2018-02-16T01:15:04.834Z,96.80
2018-02-16T01:17:32.326Z,96.60
2018-02-16T01:19:59.798Z,96.70
2018-02-16T01:22:27.290Z,97.00
2018-02-16T01:24:54.774Z,97.20
2018-02-16T01:27:22.334Z,97.10
2018-02-16T01:29:49.907Z,97.10
2018-02-16T01:32:17.391Z,97.20
2018-02-16T01:34:44.913Z,97.20
2018-02-16T01:37:12.366Z,97.30
2018-02-16T01:39:39.837Z,97.30
2018-02-16T01:42:07.326Z,97.20
2018-02-16T01:44:34.798Z,97.30
2018-02-16T01:47:02.406Z,97.10
2018-02-16T01:49:29.882Z,97.00
2018-02-16T01:51:57.442Z,97.10
2018-02-16T01:54:24.930Z,97.00
2018-02-16T01:56:53.168Z,96.90
2018-02-16T01:59:20.654Z,96.90
2018-02-16T02:01:48.142Z,97.00
2018-02-16T02:04:15.717Z,96.80
2018-02-16T02:06:43.323Z,96.80
2018-02-16T02:09:10.810Z,96.90
2018-02-16T02:11:38.331Z,96.80
2018-02-16T02:14:05.819Z,96.80
2018-02-16T02:16:34.079Z,96.90
2018-02-16T02:19:01.562Z,96.90
2018-02-16T02:21:29.034Z,96.80
2018-02-16T02:23:56.602Z,96.80
2018-02-16T02:26:24.075Z,96.70
2018-02-16T02:28:51.563Z,96.60
2018-02-16T02:31:19.834Z,96.50
2018-02-16T02:33:47.334Z,96.50
2018-02-16T02:36:14.805Z,96.40
2018-02-16T02:38:42.293Z,96.40
2018-02-16T02:41:09.847Z,96.50
2018-02-16T02:43:37.385Z,96.40
2018-02-16T02:46:04.863Z,96.50
2018-02-16T02:48:33.106Z,96.50
2018-02-16T02:51:00.595Z,96.50
2018-02-16T02:53:28.083Z,96.50
2018-02-16T02:55:55.562Z,96.50
2018-02-16T02:58:23.842Z,96.50
2018-02-16T03:00:51.330Z,96.30
2018-02-16T03:03:19.634Z,96.50
2018-02-16T03:05:47.114Z,96.40
2018-02-16T03:08:14.638Z,96.30
2018-02-16T03:10:42.210Z,96.10
2018-02-16T03:13:09.790Z,96.20
2018-02-16T03:15:37.395Z,96.00
2018-02-16T03:18:04.966Z,95.80
2018-02-16T03:20:32.465Z,95.90
2018-02-16T03:22:59.942Z,95.90
2018-02-16T03:25:27.442Z,95.80
2018-02-16T03:27:54.947Z,96.00
2018-02-16T03:30:22.478Z,96.00
2018-02-16T03:32:49.955Z,96.00
2018-02-16T03:35:18.206Z,96.20
2018-02-16T03:37:45.714Z,96.20
2018-02-16T03:40:13.294Z,96.10
2018-02-16T03:42:40.778Z,96.20
2018-02-16T03:45:09.016Z,96.20
2018-02-16T03:47:36.506Z,96.20
2018-02-16T03:50:03.999Z,96.20
2018-02-16T03:52:32.251Z,96.40
2018-02-16T03:54:59.738Z,96.40
2018-02-16T03:57:27.226Z,96.30
2018-02-16T03:59:55.470Z,96.40
2018-02-16T04:02:22.958Z,96.30
2018-02-16T04:04:50.432Z,96.30
2018-02-16T04:07:18.011Z,96.40
2018-02-16T04:09:45.584Z,96.40
2018-02-16T04:12:13.159Z,96.30
2018-02-16T04:14:40.627Z,96.40
2018-02-16T04:17:08.197Z,96.40
2018-02-16T04:19:35.674Z,96.50
2018-02-16T04:22:03.166Z,96.70
2018-02-16T04:24:31.461Z,96.50
2018-02-16T04:26:59.010Z,96.50
2018-02-16T04:29:27.250Z,96.50
2018-02-16T04:31:54.733Z,96.40
2018-02-16T04:34:22.206Z,96.50
2018-02-16T04:36:49.800Z,96.70
2018-02-16T04:39:17.373Z,96.50
2018-02-16T04:41:44.841Z,96.40
2018-02-16T04:44:12.409Z,96.40
2018-02-16T04:46:39.892Z,96.40
2018-02-16T04:49:07.381Z,96.40
2018-02-16T04:51:35.614Z,96.70
2018-02-16T04:54:03.148Z,96.70
2018-02-16T04:56:30.722Z,96.80
2018-02-16T04:58:58.261Z,96.80
2018-02-16T05:01:25.826Z,96.60
2018-02-16T05:03:53.398Z,96.70
2018-02-16T05:06:20.974Z,96.50
2018-02-16T05:08:48.542Z,96.40
2018-02-16T05:11:16.019Z,96.40
2018-02-16T05:13:43.623Z,96.30
2018-02-16T05:16:11.098Z,96.30
2018-02-16T05:18:38.587Z,96.20
2018-02-16T05:21:06.062Z,96.10
2018-02-16T05:23:33.554Z,96.20
2018-02-16T05:26:01.027Z,96.20
2018-02-16T05:28:28.514Z,96.20
2018-02-16T05:30:55.984Z,96.10
2018-02-16T05:33:24.250Z,96.40
2018-02-16T05:35:51.732Z,96.00
2018-02-16T05:38:19.310Z,96.00
2018-02-16T05:40:46.901Z,96.10
2018-02-16T05:43:15.154Z,96.20
2018-02-16T05:46:54.118Z,96.00
2018-02-16T05:49:21.607Z,96.00
2018-02-16T05:51:49.916Z,96.10
2018-02-16T05:54:17.454Z,96.10
2018-02-16T05:56:45.024Z,96.00
2018-02-16T05:59:12.506Z,96.00
2018-02-16T06:01:39.978Z,96.00
2018-02-16T06:04:08.234Z,96.20
2018-02-16T06:06:35.706Z,96.10
2018-02-16T06:09:03.203Z,96.00
2018-02-16T06:11:30.678Z,96.00
2018-02-16T06:13:58.939Z,96.10
2018-02-16T06:16:26.424Z,96.10
2018-02-16T06:18:53.927Z,96.30
2018-02-16T06:21:21.410Z,96.10
2018-02-16T06:23:48.906Z,96.10
2018-02-16T06:26:16.382Z,95.90
2018-02-16T06:28:43.857Z,95.90
2018-02-16T06:31:11.449Z,95.90
2018-02-16T06:33:39.022Z,96.10
2018-02-16T06:36:06.597Z,95.80
2018-02-16T06:38:34.075Z,95.90
2018-02-16T06:41:02.334Z,95.90
2018-02-16T06:43:29.830Z,95.90
2018-02-16T06:45:57.433Z,95.90
2018-02-16T06:48:24.922Z,95.80
2018-02-16T06:50:52.470Z,98.70
2018-02-16T06:53:20.706Z,97.20
2018-02-16T06:55:48.302Z,97.10
2018-02-16T07:00:33.613Z,96.60
2018-02-16T07:03:01.086Z,96.20
2018-02-16T07:05:28.642Z,96.10
2018-02-16T07:07:56.148Z,96.30
2018-02-16T07:10:24.454Z,96.20
2018-02-16T07:12:52.025Z,96.20
2018-02-16T07:15:19.566Z,96.00
2018-02-16T07:17:47.047Z,95.80
2018-02-16T07:20:15.305Z,95.80
2018-02-16T07:22:42.791Z,95.80
2018-02-16T07:25:10.367Z,95.80
2018-02-16T07:27:37.855Z,95.90
2018-02-16T07:30:06.095Z,95.80
2018-02-16T07:32:33.579Z,95.80
2018-02-16T07:35:01.058Z,95.70
2018-02-16T07:37:28.655Z,95.90
2018-02-16T07:39:56.894Z,95.80
2018-02-16T07:42:24.395Z,95.70
2018-02-16T07:44:51.966Z,95.60
2018-02-16T07:47:20.238Z,95.70
2018-02-16T07:49:47.744Z,95.70
2018-02-16T07:52:16.011Z,95.80
2018-02-16T07:54:43.621Z,95.80
2018-02-16T07:57:11.107Z,95.70
2018-02-16T10:23:14.819Z,86.40
2018-02-16T10:25:42.302Z,86.10
2018-02-16T10:28:09.779Z,82.00
2018-02-16T10:30:37.273Z,77.90
2018-02-16T10:33:04.765Z,73.90
2018-02-16T10:35:33.019Z,64.90
2018-02-16T10:38:00.632Z,64.80
2018-02-16T10:40:28.185Z,62.70
2018-02-16T10:42:56.442Z,59.70
2018-02-16T10:45:23.927Z,59.60
2018-02-16T10:47:51.502Z,60.40
2018-02-16T10:50:18.978Z,58.30
2018-02-16T10:52:46.473Z,59.50
2018-02-16T10:55:13.950Z,61.20
2018-02-16T10:57:41.435Z,62.80
2018-02-16T11:00:08.911Z,63.60
2018-02-16T11:02:42.192Z,64.20
2018-02-16T11:05:12.483Z,66.40
2018-02-16T11:07:45.614Z,67.90
2018-02-16T11:10:13.852Z,69.90
2018-02-16T11:12:41.358Z,69.90
2018-02-16T11:15:08.927Z,68.00
2018-02-16T11:17:37.195Z,65.60
2018-02-16T11:20:04.748Z,65.70
2018-02-16T11:22:32.244Z,65.20
2018-02-16T11:24:59.729Z,66.90
2018-02-16T11:27:27.204Z,65.50
2018-02-16T11:29:55.467Z,62.40
2018-02-16T11:32:22.951Z,62.20
2018-02-16T11:34:50.439Z,58.60
2018-02-16T11:37:18.715Z,58.40
2018-02-16T11:39:46.308Z,58.30
2018-02-16T11:42:14.554Z,56.00
2018-02-16T11:44:42.072Z,56.00
2018-02-16T11:47:10.342Z,55.80
2018-02-16T11:49:37.943Z,55.80
2018-02-16T11:52:05.430Z,54.90
2018-02-16T11:54:32.986Z,54.40
2018-02-16T11:57:00.467Z,53.70
2018-02-16T11:59:28.029Z,52.70
2018-02-16T12:01:55.701Z,53.30
2018-02-16T12:04:23.192Z,53.40
2018-02-16T12:06:50.687Z,54.10
2018-02-16T12:09:18.162Z,56.80
2018-02-16T12:11:45.651Z,58.50
2018-02-16T12:14:13.135Z,59.70
2018-02-16T12:16:41.388Z,63.60
2018-02-16T12:19:08.885Z,63.60
2018-02-16T12:21:36.459Z,64.40
2018-02-16T12:24:03.943Z,65.50
2018-02-16T12:26:32.264Z,65.00
2018-02-16T12:28:59.743Z,65.00
2018-02-16T12:31:27.254Z,63.80
2018-02-16T12:33:54.730Z,64.20
2018-02-16T12:36:22.215Z,64.40
2018-02-16T12:38:49.695Z,64.30
2018-02-16T12:41:17.959Z,61.60
2018-02-16T12:43:45.563Z,61.50
2018-02-16T12:46:13.819Z,64.10
2018-02-16T12:48:41.398Z,64.10
2018-02-16T12:51:08.907Z,64.50
2018-02-16T12:53:36.392Z,65.40
2018-02-16T12:56:03.863Z,67.30
2018-02-16T12:58:31.360Z,67.30
2018-02-16T13:00:58.833Z,66.00
2018-02-16T13:03:26.339Z,65.60
2018-02-16T13:05:54.583Z,59.70
2018-02-16T13:08:22.071Z,59.70
2018-02-16T13:10:49.657Z,55.00
2018-02-16T13:13:17.227Z,50.30
2018-02-16T13:15:44.703Z,47.80
2018-02-16T13:18:12.203Z,46.10
2018-02-16T13:20:39.679Z,46.80
2018-02-16T13:23:07.175Z,44.00
2018-02-16T13:25:34.655Z,43.10
2018-02-16T13:28:02.131Z,41.70
2018-02-16T13:30:29.624Z,43.20
2018-02-16T13:32:57.107Z,40.90
2018-02-16T13:35:25.362Z,38.30
2018-02-16T13:37:52.851Z,38.20
2018-02-16T13:40:20.341Z,37.20
2018-02-16T13:42:48.587Z,39.60
2018-02-16T13:45:16.078Z,39.60
2018-02-16T13:47:43.566Z,40.70
2018-02-16T13:50:11.818Z,40.20
2018-02-16T13:52:39.364Z,40.00
2018-02-16T13:55:06.854Z,41.30
2018-02-16T13:57:34.330Z,41.20
2018-02-16T14:00:01.832Z,39.00
2018-02-16T14:02:30.094Z,38.00
2018-02-16T14:04:57.608Z,38.00
2018-02-16T14:07:25.089Z,38.70
2018-02-16T14:09:52.575Z,40.10
2018-02-16T14:12:20.063Z,40.30
2018-02-16T14:14:47.560Z,40.10
2018-02-16T14:17:15.071Z,41.60
2018-02-16T14:19:42.551Z,41.50
2018-02-16T14:22:10.043Z,41.60
2018-02-16T14:24:37.519Z,41.10
2018-02-16T14:27:05.007Z,40.90
2018-02-16T14:29:32.492Z,40.70
2018-02-16T14:32:00.775Z,43.70
2018-02-16T14:34:28.365Z,43.70
2018-02-16T14:36:56.612Z,45.00
2018-02-16T14:39:24.102Z,45.00
2018-02-16T14:41:51.721Z,43.10
2018-02-16T14:44:19.963Z,44.60
2018-02-16T14:46:47.442Z,44.60
2018-02-16T14:49:15.822Z,46.70
2018-02-16T14:51:43.299Z,46.70
2018-02-16T14:54:10.863Z,48.60
2018-02-16T14:56:38.434Z,51.10
2018-02-16T14:59:05.923Z,50.90
2018-02-16T15:01:34.206Z,53.00
2018-02-16T15:04:02.489Z,54.00
2018-02-16T15:06:29.988Z,53.80
2018-02-16T15:08:57.562Z,55.10
2018-02-16T15:11:25.130Z,56.70
2018-02-16T15:13:52.702Z,55.70
2018-02-16T15:16:20.243Z,56.00
2018-02-16T15:18:47.715Z,56.10
2018-02-16T15:21:15.207Z,56.60
2018-02-16T15:23:43.447Z,55.90
2018-02-16T15:26:10.939Z,55.90
2018-02-16T15:28:38.515Z,55.80
2018-02-16T15:31:05.983Z,55.70
2018-02-16T15:33:33.555Z,55.70
2018-02-16T15:36:01.043Z,57.10
2018-02-16T15:38:29.303Z,56.00
2018-02-16T15:40:56.771Z,56.00
2018-02-16T15:43:24.261Z,56.00
2018-02-16T15:45:52.542Z,55.90
2018-02-16T15:48:20.031Z,55.80
2018-02-16T15:50:48.271Z,56.80
2018-02-16T15:53:15.753Z,56.70
2018-02-16T15:55:43.226Z,57.60
2018-02-16T15:58:10.735Z,57.30
2018-02-16T16:00:38.971Z,57.30
2018-02-16T16:03:06.510Z,57.30
2018-02-16T16:05:34.084Z,58.20
2018-02-16T16:08:01.650Z,58.10
2018-02-16T16:10:29.224Z,59.30
2018-02-16T16:12:56.726Z,59.40
2018-02-16T16:15:24.207Z,59.70
2018-02-16T16:17:51.732Z,59.80
2018-02-16T16:20:19.274Z,60.80
2018-02-16T16:22:46.747Z,61.30
2018-02-16T16:25:14.239Z,60.30
2018-02-16T16:27:42.480Z,62.30
2018-02-16T16:30:09.967Z,62.20
2018-02-16T16:32:37.439Z,61.90
2018-02-16T16:35:04.923Z,62.10
2018-02-16T16:37:33.181Z,64.50
2018-02-16T16:40:00.763Z,64.40
2018-02-16T16:44:43.944Z,64.60
2018-02-16T16:47:11.523Z,63.60
2018-02-16T16:49:39.775Z,64.30
2018-02-16T16:52:07.283Z,64.30
2018-02-16T16:54:34.881Z,69.40
2018-02-16T16:57:02.367Z,68.90
2018-02-16T16:59:29.886Z,68.60
2018-02-16T17:01:57.499Z,69.60
2018-02-16T17:04:25.035Z,70.00
2018-02-16T17:07:26.509Z,70.80
2018-02-16T17:09:54.111Z,70.70
2018-02-16T17:12:21.647Z,70.90
2018-02-16T17:14:49.123Z,72.30
2018-02-16T17:17:17.414Z,73.10
2018-02-16T17:19:44.915Z,73.10
2018-02-16T17:22:12.415Z,73.10
2018-02-16T17:24:39.890Z,75.50
2018-02-16T17:27:08.261Z,75.90
2018-02-16T17:29:35.735Z,76.90
2018-02-16T17:32:03.231Z,76.80
2018-02-16T17:34:30.756Z,76.80
2018-02-16T17:36:58.329Z,77.50
2018-02-16T17:39:25.871Z,78.40
2018-02-16T17:41:53.384Z,78.20
2018-02-16T17:44:20.944Z,80.20
2018-02-16T17:46:48.427Z,80.00
2018-02-16T17:49:15.915Z,80.80
2018-02-16T17:51:43.388Z,81.20
2018-02-16T17:54:10.899Z,81.70
2018-02-16T17:56:38.374Z,81.00
2018-02-16T17:59:06.615Z,82.40
2018-02-16T18:01:34.106Z,83.00
2018-02-16T18:04:01.628Z,82.80
2018-02-16T18:06:29.127Z,82.80
2018-02-16T18:08:56.617Z,82.60
2018-02-16T18:11:24.203Z,83.70
2018-02-16T18:13:51.780Z,85.00
2018-02-16T18:16:19.268Z,85.10
2018-02-16T18:18:47.509Z,85.50
2018-02-16T18:21:14.996Z,85.40
2018-02-16T18:23:42.472Z,85.10
2018-02-16T18:26:09.979Z,85.20
2018-02-16T18:28:37.527Z,85.00
2018-02-16T18:31:05.004Z,86.30
2018-02-16T18:33:33.271Z,84.90
2018-02-16T18:36:00.856Z,84.90
2018-02-16T18:38:28.439Z,85.50
2018-02-16T18:40:56.695Z,88.70
2018-02-16T18:43:24.203Z,88.70
2018-02-16T18:45:52.505Z,86.90
2018-02-16T18:48:20.011Z,86.80
2018-02-16T18:50:47.548Z,86.00
2018-02-16T18:53:15.052Z,87.00
2018-02-16T18:55:42.591Z,87.10
2018-02-16T18:58:10.063Z,88.00
2018-02-16T19:00:37.681Z,88.10
2018-02-16T19:03:05.158Z,88.50
2018-02-16T19:05:32.749Z,87.70
2018-02-16T19:08:00.233Z,87.90
2018-02-16T19:10:28.491Z,88.20
2018-02-16T19:12:55.978Z,87.90
2018-02-16T19:15:25.085Z,89.00
2018-02-16T19:17:52.668Z,88.90
2018-02-16T19:20:20.923Z,89.10
2018-02-16T19:22:48.402Z,89.10
2018-02-16T19:25:15.987Z,89.60
2018-02-16T19:27:43.563Z,89.50
2018-02-16T19:30:11.053Z,90.00
2018-02-16T19:32:41.298Z,89.70
2018-02-16T19:35:08.876Z,89.60
2018-02-16T19:37:36.364Z,90.10
2018-02-16T19:40:03.879Z,90.50
2018-02-16T19:42:32.863Z,90.10
2018-02-16T19:45:00.359Z,90.00
2018-02-16T19:47:27.931Z,90.40
2018-02-16T19:49:56.195Z,91.10
2018-02-16T19:52:23.673Z,90.80
2018-02-16T19:54:51.149Z,90.50
2018-02-16T19:57:18.635Z,90.30
2018-02-16T19:59:46.879Z,90.70
2018-02-16T20:02:14.375Z,90.60
2018-02-16T20:04:41.849Z,90.50
2018-02-16T20:07:09.435Z,90.50
2018-02-16T20:09:37.687Z,90.60
2018-02-16T20:12:05.182Z,90.40
2018-02-16T20:14:32.660Z,90.60
2018-02-16T20:17:00.164Z,90.60
2018-02-16T20:19:27.643Z,91.70
2018-02-16T20:21:55.171Z,91.50
2018-02-16T20:24:23.454Z,91.30
2018-02-16T20:26:51.027Z,91.30
2018-02-16T20:29:18.500Z,91.10
2018-02-16T20:31:46.764Z,91.00
2018-02-16T20:34:14.238Z,91.00
2018-02-16T20:36:41.847Z,91.00
2018-02-16T20:39:10.087Z,91.20
2018-02-16T20:41:37.594Z,91.10
2018-02-16T20:44:05.197Z,91.40
2018-02-16T20:46:32.696Z,91.20
2018-02-16T20:49:00.207Z,91.30
2018-02-16T20:51:28.495Z,91.60
2018-02-16T20:53:55.986Z,91.40
2018-02-16T20:56:24.285Z,91.50
2018-02-16T20:58:51.774Z,91.50
2018-02-16T21:01:19.325Z,91.40
2018-02-16T21:03:46.811Z,91.30
2018-02-16T21:06:14.287Z,91.30
2018-02-16T21:08:41.774Z,91.30
2018-02-16T21:11:09.274Z,91.40
2018-02-16T21:13:36.762Z,91.40
2018-02-16T21:16:05.005Z,91.50
2018-02-16T21:18:32.501Z,91.50
2018-02-16T21:20:59.991Z,91.50
2018-02-16T21:23:28.247Z,91.60
2018-02-16T21:25:55.723Z,91.60
2018-02-16T21:28:23.216Z,91.50
2018-02-16T21:30:51.459Z,91.80
2018-02-16T21:33:18.995Z,91.70
2018-02-16T21:35:46.474Z,91.70
2018-02-16T21:38:13.963Z,91.70
2018-02-16T21:40:41.431Z,91.60
2018-02-16T21:43:08.948Z,91.60
2018-02-16T21:45:37.954Z,92.10
2018-02-16T21:48:06.242Z,92.40
2018-02-16T21:50:34.504Z,92.20
2018-02-16T21:53:02.005Z,91.80
2018-02-16T21:55:29.575Z,91.90
2018-02-16T21:57:57.176Z,91.80
2018-02-16T22:00:24.723Z,91.80
2018-02-16T22:02:52.199Z,91.80
2018-02-16T22:05:20.450Z,91.80
2018-02-16T22:07:47.939Z,91.80
2018-02-16T22:10:15.422Z,91.90
2018-02-16T22:12:43.671Z,92.10
2018-02-16T22:15:11.155Z,92.10
2018-02-16T22:17:38.676Z,92.50
2018-02-16T22:20:06.249Z,92.40
2018-02-16T22:22:34.499Z,92.50
2018-02-16T22:25:02.007Z,92.50
2018-02-16T22:27:29.520Z,92.50
2018-02-16T22:29:57.015Z,92.40
2018-02-16T22:32:24.523Z,92.40
2018-02-16T22:34:52.007Z,92.30
2018-02-16T22:37:19.479Z,92.30
2018-02-16T22:39:46.971Z,92.50
2018-02-16T22:42:14.450Z,92.50
2018-02-16T22:44:41.947Z,92.50
2018-02-16T22:47:10.226Z,92.30
2018-02-16T22:49:37.704Z,92.30
2018-02-16T22:52:05.212Z,92.30
2018-02-16T22:54:32.690Z,92.30
2018-02-16T22:57:00.215Z,92.60
2018-02-16T22:59:28.468Z,92.30
2018-02-16T23:01:55.971Z,92.30
2018-02-16T23:04:23.443Z,92.30
2018-02-16T23:06:51.703Z,92.20
2018-02-16T23:09:19.199Z,92.20
2018-02-16T23:11:46.763Z,92.30
2018-02-16T23:14:14.343Z,92.40
2018-02-16T23:16:41.835Z,92.30
2018-02-16T23:19:10.134Z,92.40
2018-02-16T23:21:37.711Z,92.30
2018-02-16T23:24:05.277Z,92.30
2018-02-16T23:26:32.774Z,92.30
2018-02-16T23:29:00.296Z,92.30
2018-02-16T23:31:28.558Z,92.40
2018-02-16T23:33:56.143Z,92.30
2018-02-16T23:36:23.643Z,92.30
2018-02-16T23:38:51.937Z,92.50
2018-02-16T23:41:19.482Z,92.50
2018-02-16T23:43:47.708Z,92.30
2018-02-16T23:46:15.191Z,92.30
2018-02-16T23:48:42.771Z,92.30
2018-02-16T23:51:11.019Z,92.80
2018-02-16T23:53:38.515Z,92.80
2018-02-16T23:56:06.101Z,92.70
2018-02-16T23:58:34.416Z,92.50
